sensor_id;sensor_type;location;lat;lon;timestamp;pressure;altitude;pressure_sealevel;temperature;humidity
60170;BME280;46042;49.444;6.862;2023-05-07T00:01:22;98544.25;;;12.75;100.00
60170;BME280;46042;49.444;6.862;2023-05-07T00:03:48;98546.16;;;12.73;100.00
60170;BME280;46042;49.444;6.862;2023-05-07T00:06:15;98550.72;;;12.71;100.00
60170;BME280;46042;49.444;6.862;2023-05-07T00:08:42;98559.13;;;12.65;100.00
60170;BME280;46042;49.444;6.862;2023-05-07T00:11:09;98557.56;;;12.62;100.00
60170;BME280;46042;49.444;6.862;2023-05-07T00:13:35;98567.75;;;12.56;100.00
60170;BME280;46042;49.444;6.862;2023-05-07T00:16:03;98561.63;;;12.55;100.00
60170;BME280;46042;49.444;6.862;2023-05-07T00:18:30;98554.53;;;12.56;100.00
60170;BME280;46042;49.444;6.862;2023-05-07T00:20:56;98552.25;;;12.51;100.00
60170;BME280;46042;49.444;6.862;2023-05-07T00:23:23;98561.97;;;12.50;100.00
60170;BME280;46042;49.444;6.862;2023-05-07T00:25:50;98559.44;;;12.49;100.00
60170;BME280;46042;49.444;6.862;2023-05-07T00:28:16;98559.66;;;12.46;100.00
60170;BME280;46042;49.444;6.862;2023-05-07T00:30:43;98555.56;;;12.42;100.00
60170;BME280;46042;49.444;6.862;2023-05-07T00:33:10;98562.78;;;12.40;100.00
60170;BME280;46042;49.444;6.862;2023-05-07T00:35:36;98556.16;;;12.34;100.00
60170;BME280;46042;49.444;6.862;2023-05-07T00:38:03;98558.31;;;12.29;100.00
60170;BME280;46042;49.444;6.862;2023-05-07T00:40:30;98560.41;;;12.23;100.00
60170;BME280;46042;49.444;6.862;2023-05-07T00:42:56;98550.81;;;12.22;100.00
60170;BME280;46042;49.444;6.862;2023-05-07T00:45:28;98551.91;;;12.20;100.00
60170;BME280;46042;49.444;6.862;2023-05-07T00:47:56;98549.59;;;12.15;100.00
60170;BME280;46042;49.444;6.862;2023-05-07T00:50:24;98542.75;;;12.13;100.00
60170;BME280;46042;49.444;6.862;2023-05-07T00:52:50;98545.59;;;12.09;100.00
60170;BME280;46042;49.444;6.862;2023-05-07T00:55:17;98539.69;;;12.06;100.00
60170;BME280;46042;49.444;6.862;2023-05-07T00:57:44;98535.38;;;12.05;100.00
60170;BME280;46042;49.444;6.862;2023-05-07T01:00:12;98527.59;;;12.03;100.00
60170;BME280;46042;49.444;6.862;2023-05-07T01:02:40;98529.56;;;12.00;100.00
60170;BME280;46042;49.444;6.862;2023-05-07T01:05:09;98522.94;;;11.94;100.00
60170;BME280;46042;49.444;6.862;2023-05-07T01:07:40;98515.72;;;11.85;100.00
60170;BME280;46042;49.444;6.862;2023-05-07T01:10:07;98516.03;;;11.80;100.00
60170;BME280;46042;49.444;6.862;2023-05-07T01:12:36;98524.44;;;11.74;100.00
60170;BME280;46042;49.444;6.862;2023-05-07T01:15:05;98532.34;;;11.74;100.00
60170;BME280;46042;49.444;6.862;2023-05-07T01:17:34;98537.41;;;11.64;100.00
60170;BME280;46042;49.444;6.862;2023-05-07T01:20:01;98534.03;;;11.62;100.00
60170;BME280;46042;49.444;6.862;2023-05-07T01:22:32;98524.34;;;11.62;100.00
60170;BME280;46042;49.444;6.862;2023-05-07T01:25:00;98526.25;;;11.60;100.00
60170;BME280;46042;49.444;6.862;2023-05-07T01:27:28;98524.69;;;11.58;100.00
60170;BME280;46042;49.444;6.862;2023-05-07T01:29:55;98518.16;;;11.50;100.00
60170;BME280;46042;49.444;6.862;2023-05-07T01:32:51;98517.31;;;11.50;100.00
60170;BME280;46042;49.444;6.862;2023-05-07T01:35:20;98527.13;;;11.48;100.00
60170;BME280;46042;49.444;6.862;2023-05-07T01:37:49;98525.78;;;11.42;100.00
60170;BME280;46042;49.444;6.862;2023-05-07T01:40:16;98525.69;;;11.44;100.00
60170;BME280;46042;49.444;6.862;2023-05-07T01:42:43;98527.59;;;11.42;100.00
60170;BME280;46042;49.444;6.862;2023-05-07T01:45:11;98528.22;;;11.32;100.00
60170;BME280;46042;49.444;6.862;2023-05-07T01:47:39;98532.03;;;11.28;100.00
60170;BME280;46042;49.444;6.862;2023-05-07T01:50:06;98530.34;;;11.27;100.00
60170;BME280;46042;49.444;6.862;2023-05-07T01:52:37;98523.41;;;11.26;100.00
60170;BME280;46042;49.444;6.862;2023-05-07T01:55:05;98525.31;;;11.24;100.00
60170;BME280;46042;49.444;6.862;2023-05-07T01:57:32;98525.84;;;11.16;100.00
60170;BME280;46042;49.444;6.862;2023-05-07T01:59:58;98519.94;;;11.13;100.00
60170;BME280;46042;49.444;6.862;2023-05-07T02:02:25;98524.69;;;11.07;100.00
60170;BME280;46042;49.444;6.862;2023-05-07T02:04:52;98528.47;;;11.03;100.00
60170;BME280;46042;49.444;6.862;2023-05-07T02:07:19;98533.97;;;11.00;100.00
60170;BME280;46042;49.444;6.862;2023-05-07T02:09:45;98528.09;;;10.97;100.00
60170;BME280;46042;49.444;6.862;2023-05-07T02:12:12;98536.41;;;10.90;100.00
60170;BME280;46042;49.444;6.862;2023-05-07T02:14:38;98537.13;;;10.92;100.00
60170;BME280;46042;49.444;6.862;2023-05-07T02:17:05;98527.03;;;10.86;100.00
60170;BME280;46042;49.444;6.862;2023-05-07T02:19:32;98525.13;;;10.88;100.00
60170;BME280;46042;49.444;6.862;2023-05-07T02:21:59;98526.06;;;10.87;100.00
60170;BME280;46042;49.444;6.862;2023-05-07T02:24:25;98517.31;;;10.87;100.00
60170;BME280;46042;49.444;6.862;2023-05-07T02:26:52;98525.22;;;10.87;100.00
60170;BME280;46042;49.444;6.862;2023-05-07T02:29:18;98521.84;;;10.85;100.00
60170;BME280;46042;49.444;6.862;2023-05-07T02:31:45;98530.59;;;10.85;100.00
60170;BME280;46042;49.444;6.862;2023-05-07T02:34:12;98532.59;;;10.81;100.00
60170;BME280;46042;49.444;6.862;2023-05-07T02:36:38;98529.13;;;10.81;100.00
60170;BME280;46042;49.444;6.862;2023-05-07T02:39:05;98528.41;;;10.79;100.00
60170;BME280;46042;49.444;6.862;2023-05-07T02:41:31;98528.19;;;10.82;100.00
60170;BME280;46042;49.444;6.862;2023-05-07T02:43:58;98525.56;;;10.82;100.00
60170;BME280;46042;49.444;6.862;2023-05-07T02:46:25;98523.88;;;10.81;100.00
60170;BME280;46042;49.444;6.862;2023-05-07T02:48:51;98521.63;;;10.75;100.00
60170;BME280;46042;49.444;6.862;2023-05-07T02:51:22;98521.13;;;10.70;100.00
60170;BME280;46042;49.444;6.862;2023-05-07T02:53:51;98528.94;;;10.71;100.00
60170;BME280;46042;49.444;6.862;2023-05-07T02:56:18;98522.38;;;10.64;100.00
60170;BME280;46042;49.444;6.862;2023-05-07T02:58:44;98529.84;;;10.57;100.00
60170;BME280;46042;49.444;6.862;2023-05-07T03:01:11;98530.28;;;10.51;100.00
60170;BME280;46042;49.444;6.862;2023-05-07T03:03:40;98530.50;;;10.48;100.00
60170;BME280;46042;49.444;6.862;2023-05-07T03:06:07;98526.16;;;10.47;100.00
60170;BME280;46042;49.444;6.862;2023-05-07T03:08:33;98521.94;;;10.44;100.00
60170;BME280;46042;49.444;6.862;2023-05-07T03:11:00;98524.56;;;10.44;100.00
60170;BME280;46042;49.444;6.862;2023-05-07T03:13:27;98529.19;;;10.41;100.00
60170;BME280;46042;49.444;6.862;2023-05-07T03:15:54;98522.97;;;10.42;100.00
60170;BME280;46042;49.444;6.862;2023-05-07T03:18:20;98518.75;;;10.39;100.00
60170;BME280;46042;49.444;6.862;2023-05-07T03:20:48;98522.22;;;10.39;100.00
60170;BME280;46042;49.444;6.862;2023-05-07T03:23:15;98517.06;;;10.38;100.00
60170;BME280;46042;49.444;6.862;2023-05-07T03:25:41;98522.63;;;10.33;100.00
60170;BME280;46042;49.444;6.862;2023-05-07T03:28:08;98516.72;;;10.30;100.00
60170;BME280;46042;49.444;6.862;2023-05-07T03:30:35;98510.94;;;10.24;100.00
60170;BME280;46042;49.444;6.862;2023-05-07T03:33:01;98507.66;;;10.21;100.00
60170;BME280;46042;49.444;6.862;2023-05-07T03:35:28;98508.59;;;10.20;100.00
60170;BME280;46042;49.444;6.862;2023-05-07T03:37:55;98507.13;;;10.16;100.00
60170;BME280;46042;49.444;6.862;2023-05-07T03:40:21;98501.84;;;10.16;100.00
60170;BME280;46042;49.444;6.862;2023-05-07T03:42:48;98509.84;;;10.14;100.00
60170;BME280;46042;49.444;6.862;2023-05-07T03:45:15;98504.78;;;10.11;100.00
60170;BME280;46042;49.444;6.862;2023-05-07T03:47:41;98502.16;;;10.11;100.00
60170;BME280;46042;49.444;6.862;2023-05-07T03:50:10;98506.78;;;10.07;100.00
60170;BME280;46042;49.444;6.862;2023-05-07T03:52:37;98504.66;;;10.00;100.00
60170;BME280;46042;49.444;6.862;2023-05-07T03:55:04;98514.75;;;9.93;100.00
60170;BME280;46042;49.444;6.862;2023-05-07T03:57:32;98516.97;;;9.99;100.00
60170;BME280;46042;49.444;6.862;2023-05-07T03:59:59;98519.59;;;9.99;100.00
60170;BME280;46042;49.444;6.862;2023-05-07T04:02:26;98519.69;;;9.98;100.00
60170;BME280;46042;49.444;6.862;2023-05-07T04:04:53;98515.38;;;9.96;100.00
60170;BME280;46042;49.444;6.862;2023-05-07T04:07:20;98510.41;;;9.92;100.00
60170;BME280;46042;49.444;6.862;2023-05-07T04:09:47;98511.56;;;9.88;100.00
60170;BME280;46042;49.444;6.862;2023-05-07T04:12:14;98513.16;;;9.90;100.00
60170;BME280;46042;49.444;6.862;2023-05-07T04:14:41;98510.53;;;9.90;100.00
60170;BME280;46042;49.444;6.862;2023-05-07T04:17:08;98522.09;;;9.88;100.00
60170;BME280;46042;49.444;6.862;2023-05-07T04:19:36;98520.31;;;9.88;100.00
60170;BME280;46042;49.444;6.862;2023-05-07T04:22:02;98514.75;;;9.93;100.00
60170;BME280;46042;49.444;6.862;2023-05-07T04:24:31;98514.19;;;9.88;100.00
60170;BME280;46042;49.444;6.862;2023-05-07T04:26:59;98511.34;;;9.91;100.00
60170;BME280;46042;49.444;6.862;2023-05-07T04:29:26;98508.56;;;9.94;100.00
60170;BME280;46042;49.444;6.862;2023-05-07T04:31:52;98508.44;;;9.95;100.00
60170;BME280;46042;49.444;6.862;2023-05-07T04:34:19;98513.59;;;9.97;100.00
60170;BME280;46042;49.444;6.862;2023-05-07T04:36:47;98513.03;;;9.92;100.00
60170;BME280;46042;49.444;6.862;2023-05-07T04:39:14;98515.28;;;9.98;100.00
60170;BME280;46042;49.444;6.862;2023-05-07T04:41:41;98512.38;;;10.03;100.00
60170;BME280;46042;49.444;6.862;2023-05-07T04:44:08;98508.28;;;10.12;100.00
60170;BME280;46042;49.444;6.862;2023-05-07T04:46:35;98503.53;;;10.17;100.00
60170;BME280;46042;49.444;6.862;2023-05-07T04:49:02;98511.13;;;10.21;100.00
60170;BME280;46042;49.444;6.862;2023-05-07T04:51:29;98517.34;;;10.20;100.00
60170;BME280;46042;49.444;6.862;2023-05-07T04:53:56;98512.91;;;10.21;100.00
60170;BME280;46042;49.444;6.862;2023-05-07T04:56:23;98517.44;;;10.19;100.00
60170;BME280;46042;49.444;6.862;2023-05-07T04:58:49;98518.72;;;10.26;100.00
60170;BME280;46042;49.444;6.862;2023-05-07T05:01:16;98516.72;;;10.30;100.00
60170;BME280;46042;49.444;6.862;2023-05-07T05:03:43;98518.09;;;10.35;100.00
60170;BME280;46042;49.444;6.862;2023-05-07T05:06:09;98522.22;;;10.39;100.00
60170;BME280;46042;49.444;6.862;2023-05-07T05:08:36;98515.09;;;10.42;100.00
60170;BME280;46042;49.444;6.862;2023-05-07T05:11:03;98523.63;;;10.45;100.00
60170;BME280;46042;49.444;6.862;2023-05-07T05:13:30;98522.47;;;10.49;100.00
60170;BME280;46042;49.444;6.862;2023-05-07T05:15:56;98524.78;;;10.54;100.00
60170;BME280;46042;49.444;6.862;2023-05-07T05:18:23;98534.69;;;10.50;100.00
60170;BME280;46042;49.444;6.862;2023-05-07T05:20:51;98527.66;;;10.64;100.00
60170;BME280;46042;49.444;6.862;2023-05-07T05:23:18;98539.66;;;10.68;100.00
60170;BME280;46042;49.444;6.862;2023-05-07T05:25:44;98537.88;;;10.69;100.00
60170;BME280;46042;49.444;6.862;2023-05-07T05:28:11;98553.38;;;10.73;100.00
60170;BME280;46042;49.444;6.862;2023-05-07T05:30:38;98551.91;;;10.82;100.00
60170;BME280;46042;49.444;6.862;2023-05-07T05:33:05;98540.94;;;10.88;100.00
60170;BME280;46042;49.444;6.862;2023-05-07T05:35:32;98545.78;;;10.94;100.00
60170;BME280;46042;49.444;6.862;2023-05-07T05:37:59;98546.19;;;11.01;100.00
60170;BME280;46042;49.444;6.862;2023-05-07T05:40:25;98538.59;;;11.09;100.00
60170;BME280;46042;49.444;6.862;2023-05-07T05:42:52;98545.84;;;11.19;100.00
60170;BME280;46042;49.444;6.862;2023-05-07T05:45:19;98544.28;;;11.29;100.00
60170;BME280;46042;49.444;6.862;2023-05-07T05:47:45;98540.03;;;11.40;100.00
60170;BME280;46042;49.444;6.862;2023-05-07T05:50:12;98540.66;;;11.43;100.00
60170;BME280;46042;49.444;6.862;2023-05-07T05:52:39;98543.59;;;11.51;100.00
60170;BME280;46042;49.444;6.862;2023-05-07T05:55:07;98546.63;;;11.58;100.00
60170;BME280;46042;49.444;6.862;2023-05-07T05:57:34;98543.44;;;11.66;100.00
60170;BME280;46042;49.444;6.862;2023-05-07T06:00:01;98550.69;;;11.75;100.00
60170;BME280;46042;49.444;6.862;2023-05-07T06:02:29;98558.78;;;11.85;100.00
60170;BME280;46042;49.444;6.862;2023-05-07T06:04:55;98559.06;;;11.93;100.00
60170;BME280;46042;49.444;6.862;2023-05-07T06:07:22;98559.47;;;12.00;100.00
60170;BME280;46042;49.444;6.862;2023-05-07T06:09:49;98562.75;;;12.04;100.00
60170;BME280;46042;49.444;6.862;2023-05-07T06:12:15;98556.91;;;12.12;100.00
60170;BME280;46042;49.444;6.862;2023-05-07T06:14:45;98564.16;;;12.21;100.00
60170;BME280;46042;49.444;6.862;2023-05-07T06:17:12;98560.59;;;12.33;100.00
60170;BME280;46042;49.444;6.862;2023-05-07T06:19:38;98557.09;;;12.33;100.00
60170;BME280;46042;49.444;6.862;2023-05-07T06:22:05;98562.53;;;12.43;100.00
60170;BME280;46042;49.444;6.862;2023-05-07T06:24:32;98560.06;;;12.52;100.00
60170;BME280;46042;49.444;6.862;2023-05-07T06:26:58;98557.69;;;12.61;100.00
60170;BME280;46042;49.444;6.862;2023-05-07T06:29:25;98561.19;;;12.73;100.00
60170;BME280;46042;49.444;6.862;2023-05-07T06:31:55;98563.00;;;12.84;100.00
60170;BME280;46042;49.444;6.862;2023-05-07T06:34:22;98568.91;;;12.87;100.00
60170;BME280;46042;49.444;6.862;2023-05-07T06:36:48;98563.63;;;12.99;100.00
60170;BME280;46042;49.444;6.862;2023-05-07T06:39:15;98569.16;;;13.07;100.00
60170;BME280;46042;49.444;6.862;2023-05-07T06:41:42;98563.91;;;13.18;100.00
60170;BME280;46042;49.444;6.862;2023-05-07T06:44:08;98561.13;;;13.31;100.00
60170;BME280;46042;49.444;6.862;2023-05-07T06:46:35;98564.63;;;13.43;100.00
60170;BME280;46042;49.444;6.862;2023-05-07T06:49:02;98568.97;;;13.56;100.00
60170;BME280;46042;49.444;6.862;2023-05-07T06:51:29;98573.38;;;13.67;100.00
60170;BME280;46042;49.444;6.862;2023-05-07T06:53:56;98577.34;;;13.72;100.00
60170;BME280;46042;49.444;6.862;2023-05-07T06:56:23;98573.69;;;13.85;100.00
60170;BME280;46042;49.444;6.862;2023-05-07T06:58:50;98568.91;;;13.90;100.00
60170;BME280;46042;49.444;6.862;2023-05-07T07:01:16;98569.81;;;14.00;100.00
60170;BME280;46042;49.444;6.862;2023-05-07T07:03:43;98573.03;;;14.15;100.00
60170;BME280;46042;49.444;6.862;2023-05-07T07:06:09;98568.38;;;14.29;100.00
60170;BME280;46042;49.444;6.862;2023-05-07T07:08:36;98569.06;;;14.42;100.00
60170;BME280;46042;49.444;6.862;2023-05-07T07:11:05;98571.78;;;14.52;100.00
60170;BME280;46042;49.444;6.862;2023-05-07T07:13:32;98572.97;;;14.59;100.00
60170;BME280;46042;49.444;6.862;2023-05-07T07:15:59;98580.66;;;14.62;100.00
60170;BME280;46042;49.444;6.862;2023-05-07T07:18:26;98581.81;;;14.70;100.00
60170;BME280;46042;49.444;6.862;2023-05-07T07:20:53;98581.34;;;14.64;100.00
60170;BME280;46042;49.444;6.862;2023-05-07T07:23:20;98587.09;;;14.81;100.00
60170;BME280;46042;49.444;6.862;2023-05-07T07:25:47;98585.91;;;14.95;100.00
60170;BME280;46042;49.444;6.862;2023-05-07T07:28:14;98586.41;;;15.10;100.00
60170;BME280;46042;49.444;6.862;2023-05-07T07:30:40;98585.06;;;15.16;100.00
60170;BME280;46042;49.444;6.862;2023-05-07T07:33:07;98587.28;;;15.20;100.00
60170;BME280;46042;49.444;6.862;2023-05-07T07:35:34;98585.81;;;15.28;100.00
60170;BME280;46042;49.444;6.862;2023-05-07T07:38:00;98586.84;;;15.46;100.00
60170;BME280;46042;49.444;6.862;2023-05-07T07:40:27;98581.88;;;15.63;100.00
60170;BME280;46042;49.444;6.862;2023-05-07T07:42:54;98577.88;;;15.78;100.00
60170;BME280;46042;49.444;6.862;2023-05-07T07:45:21;98587.25;;;15.83;100.00
60170;BME280;46042;49.444;6.862;2023-05-07T07:47:47;98588.53;;;15.88;99.51
60170;BME280;46042;49.444;6.862;2023-05-07T07:50:14;98584.31;;;15.86;97.77
60170;BME280;46042;49.444;6.862;2023-05-07T07:53:01;98592.63;;;16.02;100.00
60170;BME280;46042;49.444;6.862;2023-05-07T07:55:28;98586.63;;;16.20;100.00
60170;BME280;46042;49.444;6.862;2023-05-07T07:57:54;98599.09;;;16.29;100.00
60170;BME280;46042;49.444;6.862;2023-05-07T08:00:21;98597.84;;;16.43;100.00
60170;BME280;46042;49.444;6.862;2023-05-07T08:02:48;98598.25;;;16.48;100.00
60170;BME280;46042;49.444;6.862;2023-05-07T08:05:15;98594.47;;;16.61;100.00
60170;BME280;46042;49.444;6.862;2023-05-07T08:07:42;98592.78;;;16.70;100.00
60170;BME280;46042;49.444;6.862;2023-05-07T08:10:09;98599.06;;;16.78;100.00
60170;BME280;46042;49.444;6.862;2023-05-07T08:12:36;98598.34;;;16.96;100.00
60170;BME280;46042;49.444;6.862;2023-05-07T08:15:02;98592.16;;;17.15;100.00
60170;BME280;46042;49.444;6.862;2023-05-07T08:17:29;98596.56;;;17.34;100.00
60170;BME280;46042;49.444;6.862;2023-05-07T08:19:56;98598.97;;;17.38;93.88
60170;BME280;46042;49.444;6.862;2023-05-07T08:22:22;98589.25;;;17.46;93.56
60170;BME280;46042;49.444;6.862;2023-05-07T08:24:49;98583.88;;;17.56;96.26
60170;BME280;46042;49.444;6.862;2023-05-07T08:27:16;98579.97;;;17.78;99.30
60170;BME280;46042;49.444;6.862;2023-05-07T08:29:42;98583.38;;;17.71;88.52
60170;BME280;46042;49.444;6.862;2023-05-07T08:32:13;98578.69;;;17.83;89.16
60170;BME280;46042;49.444;6.862;2023-05-07T08:34:40;98581.94;;;17.76;89.68
60170;BME280;46042;49.444;6.862;2023-05-07T08:37:07;98582.25;;;17.73;82.62
60170;BME280;46042;49.444;6.862;2023-05-07T08:39:33;98582.94;;;17.75;82.17
60170;BME280;46042;49.444;6.862;2023-05-07T08:42:00;98588.50;;;17.82;82.95
60170;BME280;46042;49.444;6.862;2023-05-07T08:44:34;98587.13;;;18.06;87.36
60170;BME280;46042;49.444;6.862;2023-05-07T08:47:02;98590.78;;;18.23;85.62
60170;BME280;46042;49.444;6.862;2023-05-07T08:49:29;98587.97;;;18.43;81.00
60170;BME280;46042;49.444;6.862;2023-05-07T08:51:55;98583.84;;;18.67;86.40
60170;BME280;46042;49.444;6.862;2023-05-07T08:54:23;98589.25;;;18.57;80.91
60170;BME280;46042;49.444;6.862;2023-05-07T08:56:50;98587.78;;;18.81;85.91
60170;BME280;46042;49.444;6.862;2023-05-07T08:59:17;98583.25;;;18.81;76.93
60170;BME280;46042;49.444;6.862;2023-05-07T09:01:44;98594.09;;;18.80;77.90
60170;BME280;46042;49.444;6.862;2023-05-07T09:04:11;98596.47;;;18.83;77.83
60170;BME280;46042;49.444;6.862;2023-05-07T09:06:39;98595.97;;;19.05;86.21
60170;BME280;46042;49.444;6.862;2023-05-07T09:09:08;98595.81;;;19.07;77.93
60170;BME280;46042;49.444;6.862;2023-05-07T09:11:35;98596.06;;;19.22;78.87
60170;BME280;46042;49.444;6.862;2023-05-07T09:14:01;98594.69;;;18.91;77.17
60170;BME280;46042;49.444;6.862;2023-05-07T09:16:30;98607.19;;;19.09;77.62
60170;BME280;46042;49.444;6.862;2023-05-07T09:18:58;98601.72;;;19.19;78.19
60170;BME280;46042;49.444;6.862;2023-05-07T09:21:26;98597.63;;;19.33;78.94
60170;BME280;46042;49.444;6.862;2023-05-07T09:23:55;98593.66;;;19.37;76.38
60170;BME280;46042;49.444;6.862;2023-05-07T09:26:23;98588.47;;;19.36;73.12
60170;BME280;46042;49.444;6.862;2023-05-07T09:28:50;98583.44;;;19.32;71.69
60170;BME280;46042;49.444;6.862;2023-05-07T09:31:17;98579.94;;;19.32;73.11
60170;BME280;46042;49.444;6.862;2023-05-07T09:33:46;98583.97;;;19.36;75.17
60170;BME280;46042;49.444;6.862;2023-05-07T09:36:13;98571.97;;;19.40;72.33
60170;BME280;46042;49.444;6.862;2023-05-07T09:38:41;98577.00;;;19.43;71.92
60170;BME280;46042;49.444;6.862;2023-05-07T09:41:09;98577.13;;;19.42;72.96
60170;BME280;46042;49.444;6.862;2023-05-07T09:43:37;98574.16;;;19.45;73.37
60170;BME280;46042;49.444;6.862;2023-05-07T09:46:11;98574.25;;;19.61;71.49
60170;BME280;46042;49.444;6.862;2023-05-07T09:48:40;98575.06;;;19.62;71.86
60170;BME280;46042;49.444;6.862;2023-05-07T09:51:32;98577.72;;;19.97;73.78
60170;BME280;46042;49.444;6.862;2023-05-07T09:54:02;98580.59;;;20.28;76.73
60170;BME280;46042;49.444;6.862;2023-05-07T09:56:30;98592.31;;;20.52;72.32
60170;BME280;46042;49.444;6.862;2023-05-07T09:59:00;98594.16;;;20.68;67.66
60170;BME280;46042;49.444;6.862;2023-05-07T10:01:27;98591.53;;;20.85;65.24
60170;BME280;46042;49.444;6.862;2023-05-07T10:03:54;98588.97;;;21.08;68.67
60170;BME280;46042;49.444;6.862;2023-05-07T10:06:22;98595.66;;;21.12;67.08
60170;BME280;46042;49.444;6.862;2023-05-07T10:08:49;98596.53;;;21.61;77.83
60170;BME280;46042;49.444;6.862;2023-05-07T10:11:17;98585.91;;;21.76;66.61
60170;BME280;46042;49.444;6.862;2023-05-07T10:13:46;98595.69;;;21.69;63.05
60170;BME280;46042;49.444;6.862;2023-05-07T10:16:13;98585.78;;;21.69;64.77
60170;BME280;46042;49.444;6.862;2023-05-07T10:18:41;98590.16;;;22.02;71.74
60170;BME280;46042;49.444;6.862;2023-05-07T10:21:16;98584.69;;;22.19;66.40
60170;BME280;46042;49.444;6.862;2023-05-07T10:23:51;98587.97;;;22.29;63.87
60170;BME280;46042;49.444;6.862;2023-05-07T10:26:22;98588.13;;;22.04;62.87
60170;BME280;46042;49.444;6.862;2023-05-07T10:28:54;98583.75;;;21.71;62.03
60170;BME280;46042;49.444;6.862;2023-05-07T10:31:36;98593.00;;;21.69;63.87
60170;BME280;46042;49.444;6.862;2023-05-07T10:34:16;98585.09;;;21.76;64.41
60170;BME280;46042;49.444;6.862;2023-05-07T10:36:44;98579.28;;;21.95;65.07
60170;BME280;46042;49.444;6.862;2023-05-07T10:39:11;98585.91;;;22.08;63.73
60170;BME280;46042;49.444;6.862;2023-05-07T10:41:39;98586.16;;;22.21;64.31
60170;BME280;46042;49.444;6.862;2023-05-07T10:44:05;98596.34;;;21.71;60.20
60170;BME280;46042;49.444;6.862;2023-05-07T10:46:32;98596.50;;;21.69;61.23
60170;BME280;46042;49.444;6.862;2023-05-07T10:51:35;98587.00;;;22.22;59.46
60170;BME280;46042;49.444;6.862;2023-05-07T10:56:42;98581.19;;;23.63;64.57
60170;BME280;46042;49.444;6.862;2023-05-07T11:02:03;98575.50;;;22.98;58.52
60170;BME280;46042;49.444;6.862;2023-05-07T11:04:31;98575.72;;;22.73;56.76
60170;BME280;46042;49.444;6.862;2023-05-07T11:09:55;98568.28;;;22.60;56.27
60170;BME280;46042;49.444;6.862;2023-05-07T11:15:11;98572.03;;;22.74;58.45
60170;BME280;46042;49.444;6.862;2023-05-07T11:17:58;98572.66;;;22.76;58.75
60170;BME280;46042;49.444;6.862;2023-05-07T11:26:05;98576.38;;;22.75;60.95
60170;BME280;46042;49.444;6.862;2023-05-07T11:28:38;98574.94;;;22.87;59.98
60170;BME280;46042;49.444;6.862;2023-05-07T11:31:05;98580.41;;;22.94;56.35
60170;BME280;46042;49.444;6.862;2023-05-07T11:33:33;98579.94;;;22.91;61.51
60170;BME280;46042;49.444;6.862;2023-05-07T11:36:02;98575.88;;;22.95;54.34
60170;BME280;46042;49.444;6.862;2023-05-07T11:38:30;98566.69;;;23.19;55.98
60170;BME280;46042;49.444;6.862;2023-05-07T11:40:58;98575.66;;;23.50;57.66
60170;BME280;46042;49.444;6.862;2023-05-07T11:43:27;98570.53;;;23.55;57.23
60170;BME280;46042;49.444;6.862;2023-05-07T11:45:53;98569.38;;;23.79;53.60
60170;BME280;46042;49.444;6.862;2023-05-07T11:48:21;98580.06;;;23.72;52.06
60170;BME280;46042;49.444;6.862;2023-05-07T11:53:25;98584.09;;;23.98;53.76
60170;BME280;46042;49.444;6.862;2023-05-07T11:55:53;98579.72;;;24.34;53.69
60170;BME280;46042;49.444;6.862;2023-05-07T11:58:24;98583.44;;;24.33;51.98
60170;BME280;46042;49.444;6.862;2023-05-07T12:00:51;98583.25;;;24.35;51.61
60170;BME280;46042;49.444;6.862;2023-05-07T12:03:19;98579.00;;;24.47;56.45
60170;BME280;46042;49.444;6.862;2023-05-07T12:05:47;98582.63;;;24.33;52.75
60170;BME280;46042;49.444;6.862;2023-05-07T12:08:14;98581.94;;;24.31;52.17
60170;BME280;46042;49.444;6.862;2023-05-07T12:10:43;98579.78;;;23.67;48.63
60170;BME280;46042;49.444;6.862;2023-05-07T12:13:20;98581.72;;;23.73;53.35
60170;BME280;46042;49.444;6.862;2023-05-07T12:15:51;98580.44;;;23.69;53.13
60170;BME280;46042;49.444;6.862;2023-05-07T12:18:17;98583.88;;;23.63;56.32
60170;BME280;46042;49.444;6.862;2023-05-07T12:20:45;98579.06;;;23.28;52.64
60170;BME280;46042;49.444;6.862;2023-05-07T12:23:12;98586.91;;;23.15;52.36
60170;BME280;46042;49.444;6.862;2023-05-07T12:25:40;98584.31;;;23.22;56.33
60170;BME280;46042;49.444;6.862;2023-05-07T12:28:17;98588.94;;;23.13;53.84
60170;BME280;46042;49.444;6.862;2023-05-07T12:30:46;98583.19;;;23.01;56.46
60170;BME280;46042;49.444;6.862;2023-05-07T12:33:24;98582.06;;;22.80;54.55
60170;BME280;46042;49.444;6.862;2023-05-07T12:35:53;98588.63;;;22.54;57.15
60170;BME280;46042;49.444;6.862;2023-05-07T12:38:20;98582.19;;;22.40;57.58
60170;BME280;46042;49.444;6.862;2023-05-07T12:40:53;98591.84;;;22.26;56.83
60170;BME280;46042;49.444;6.862;2023-05-07T12:43:25;98592.19;;;22.23;58.72
60170;BME280;46042;49.444;6.862;2023-05-07T12:45:54;98591.88;;;22.18;58.35
60170;BME280;46042;49.444;6.862;2023-05-07T12:48:22;98594.00;;;21.99;58.83
60170;BME280;46042;49.444;6.862;2023-05-07T12:51:00;98594.97;;;22.07;59.30
60170;BME280;46042;49.444;6.862;2023-05-07T12:53:27;98585.22;;;22.14;62.18
60170;BME280;46042;49.444;6.862;2023-05-07T12:55:56;98586.03;;;22.14;64.00
60170;BME280;46042;49.444;6.862;2023-05-07T12:58:30;98586.81;;;22.00;63.69
60170;BME280;46042;49.444;6.862;2023-05-07T13:01:01;98588.50;;;22.01;62.15
60170;BME280;46042;49.444;6.862;2023-05-07T13:03:33;98589.75;;;21.82;60.23
60170;BME280;46042;49.444;6.862;2023-05-07T13:06:05;98591.94;;;21.78;61.97
60170;BME280;46042;49.444;6.862;2023-05-07T13:08:34;98593.81;;;21.78;63.78
60170;BME280;46042;49.444;6.862;2023-05-07T13:11:03;98608.59;;;21.65;62.26
60170;BME280;46042;49.444;6.862;2023-05-07T13:13:31;98594.00;;;21.68;62.74
60170;BME280;46042;49.444;6.862;2023-05-07T13:15:59;98598.25;;;21.45;63.50
60170;BME280;46042;49.444;6.862;2023-05-07T13:18:28;98599.97;;;21.22;61.77
60170;BME280;46042;49.444;6.862;2023-05-07T13:20:55;98599.00;;;21.23;63.12